Time;durP1;ratioP1;P1;durP2;ratioP2;P2;SDS_P1;SDS_P2;PMS_P1;PMS_P2;Temp;Humidity;BMP_temperature;BMP_pressure;BME280_temperature;BME280_humidity;BME280_pressure;Samples;Min_cycle;Max_cycle;Signal;HPM_P1;HPM_P2
2021/07/13 00:00:32;;;;;;;20.98;19.15;;;;;;;18.04;67.18;93505.25;5092629;28;20028;-57
2021/07/13 00:03:02;;;;;;;18.90;17.48;;;;;;;18.05;67.39;93517.91;5092378;28;20198;-57
2021/07/13 00:05:28;;;;;;;19.33;17.52;;;;;;;17.93;67.61;93503.09;5093291;28;20566;-56
2021/07/13 00:07:55;;;;;;;19.75;18.05;;;;;;;17.96;67.72;93507.50;5092367;28;20093;-57
2021/07/13 00:10:29;;;;;;;19.77;18.20;;;;;;;18.00;67.46;93507.03;5073003;28;20596;-57
2021/07/13 00:12:56;;;;;;;18.48;16.98;;;;;;;17.99;66.92;93502.81;5073407;28;20397;-57
2021/07/13 00:15:27;;;;;;;17.95;16.55;;;;;;;17.80;67.85;93509.19;5073073;28;20024;-57
2021/07/13 00:17:55;;;;;;;17.75;16.15;;;;;;;17.87;66.83;93511.09;5072877;28;20021;-57
2021/07/13 00:20:21;;;;;;;17.83;16.42;;;;;;;17.81;67.75;93516.25;5073294;28;20059;-57
2021/07/13 00:22:46;;;;;;;18.45;16.83;;;;;;;17.80;67.29;93516.88;5073150;28;20090;-57
2021/07/13 00:25:13;;;;;;;84.38;77.70;;;;;;;17.74;68.01;93514.38;5076375;28;20496;-57
2021/07/13 00:27:40;;;;;;;91.97;85.03;;;;;;;17.82;66.68;93520.50;5084297;28;20032;-55
2021/07/13 00:30:09;;;;;;;16.70;15.30;;;;;;;17.83;67.00;93524.03;5073072;28;20053;-57
2021/07/13 00:32:35;;;;;;;18.27;15.43;;;;;;;17.76;67.17;93522.19;5088687;28;20077;-57
2021/07/13 00:35:00;;;;;;;16.88;15.40;;;;;;;17.70;67.30;93522.47;5093080;28;20024;-58
2021/07/13 00:37:25;;;;;;;17.27;15.85;;;;;;;17.71;67.39;93526.75;5092178;28;20027;-58
2021/07/13 00:39:51;;;;;;;17.67;16.20;;;;;;;17.71;67.18;93520.44;5089055;28;20032;-58
2021/07/13 00:42:17;;;;;;;17.77;16.15;;;;;;;17.66;67.47;93529.84;5090263;28;20486;-58
2021/07/13 00:44:44;;;;;;;18.20;16.80;;;;;;;17.65;67.86;93517.94;5077629;28;20024;-58
2021/07/13 00:47:11;;;;;;;17.27;15.88;;;;;;;17.65;67.44;93523.53;5092367;28;20459;-57
2021/07/13 00:49:37;;;;;;;17.13;15.73;;;;;;;17.67;67.43;93525.75;5093069;28;20420;-57
2021/07/13 00:52:03;;;;;;;18.13;16.63;;;;;;;17.53;67.76;93514.31;5092917;28;20684;-57
2021/07/13 00:54:30;;;;;;;17.40;15.93;;;;;;;17.64;67.17;93526.91;5092278;28;20024;-57
2021/07/13 00:56:56;;;;;;;15.95;14.55;;;;;;;17.54;67.67;93523.44;5091489;28;20099;-58
2021/07/13 00:59:21;;;;;;;17.33;15.93;;;;;;;17.60;67.53;93530.16;5092361;28;20030;-57
2021/07/13 01:01:47;;;;;;;17.38;15.68;;;;;;;17.59;67.04;93534.28;5091619;28;20036;-58
2021/07/13 01:04:13;;;;;;;16.75;15.23;;;;;;;17.49;67.36;93530.03;5090841;28;20043;-58
2021/07/13 01:06:49;;;;;;;16.65;15.35;;;;;;;17.48;67.63;93532.06;5086330;28;20035;-58
2021/07/13 01:09:22;;;;;;;17.48;16.08;;;;;;;17.50;67.31;93532.25;5091870;28;20047;-58
2021/07/13 01:11:57;;;;;;;15.52;14.32;;;;;;;17.40;67.50;93526.69;5087547;28;20417;-58
2021/07/13 01:14:36;;;;;;;15.60;14.40;;;;;;;17.34;66.82;93522.72;5080747;28;20029;-58
2021/07/13 01:17:13;;;;;;;15.57;14.25;;;;;;;17.31;66.55;93521.09;5072872;28;20037;-58
2021/07/13 01:19:56;;;;;;;15.60;14.20;;;;;;;17.24;67.22;93522.75;5075694;28;20039;-58
2021/07/13 01:22:26;;;;;;;17.63;16.13;;;;;;;17.11;67.64;93525.25;5072049;28;20040;-58
2021/07/13 01:25:16;;;;;;;17.48;16.05;;;;;;;17.08;67.83;93515.28;5070470;28;20040;-56
2021/07/13 01:27:55;;;;;;;17.20;15.77;;;;;;;17.12;67.55;93516.31;5080929;28;20046;-59
2021/07/13 01:30:22;;;;;;;17.42;16.13;;;;;;;17.08;68.33;93510.44;5077028;28;20020;-54
2021/07/13 01:32:59;;;;;;;18.45;16.85;;;;;;;17.05;68.42;93502.50;5081244;28;20031;-57
2021/07/13 01:35:31;;;;;;;18.45;17.05;;;;;;;17.02;68.60;93501.63;5080240;28;20099;-57
2021/07/13 01:37:58;;;;;;;21.67;19.70;;;;;;;16.93;68.46;93490.50;5082355;28;20035;-57
2021/07/13 01:40:25;;;;;;;48.88;36.65;;;;;;;16.99;68.29;93516.03;5082381;28;20012;-57
2021/07/13 01:42:50;;;;;;;40.58;35.25;;;;;;;16.93;68.85;93516.34;5068876;28;20028;-57
2021/07/13 01:45:17;;;;;;;31.45;28.15;;;;;;;16.98;68.68;93514.59;5073410;28;20035;-57
2021/07/13 01:47:43;;;;;;;29.08;25.88;;;;;;;16.90;69.07;93508.41;5082254;28;20378;-57
2021/07/13 01:50:10;;;;;;;26.90;24.15;;;;;;;16.96;68.70;93508.84;5083341;28;20069;-57
2021/07/13 01:52:37;;;;;;;28.90;25.95;;;;;;;16.98;68.87;93506.22;5079612;28;20108;-57
2021/07/13 01:55:04;;;;;;;23.65;21.25;;;;;;;16.99;67.54;93511.19;5080681;28;20031;-57
2021/07/13 01:57:31;;;;;;;23.75;17.98;;;;;;;16.98;66.68;93509.72;5079353;28;20035;-59
2021/07/13 01:59:58;;;;;;;18.25;16.42;;;;;;;16.86;66.90;93508.88;5080694;28;20024;-58
2021/07/13 02:02:25;;;;;;;18.10;16.38;;;;;;;16.91;66.81;93513.41;5080145;28;20012;-59
2021/07/13 02:04:51;;;;;;;18.33;16.52;;;;;;;16.83;66.83;93512.81;5077723;28;20520;-59
2021/07/13 02:07:17;;;;;;;18.23;16.48;;;;;;;16.69;67.83;93511.81;5079325;28;20024;-58
2021/07/13 02:09:43;;;;;;;18.98;17.00;;;;;;;16.70;68.12;93512.56;5079632;28;20062;-58
2021/07/13 02:12:09;;;;;;;18.48;16.88;;;;;;;16.68;68.02;93505.50;5080157;28;20100;-58
2021/07/13 02:14:35;;;;;;;17.23;15.93;;;;;;;16.68;68.26;93507.53;5077457;28;20031;-58
2021/07/13 02:17:01;;;;;;;18.45;16.67;;;;;;;16.62;68.36;93510.63;5079507;28;20024;-58
2021/07/13 02:19:27;;;;;;;17.83;16.38;;;;;;;16.64;68.56;93513.56;5079527;28;20402;-57
2021/07/13 02:21:55;;;;;;;17.60;16.08;;;;;;;16.54;69.07;93506.53;5080292;28;20157;-57
2021/07/13 02:24:20;;;;;;;18.90;17.40;;;;;;;16.58;69.17;93512.41;5079627;28;20028;-56
2021/07/13 02:26:52;;;;;;;19.08;17.23;;;;;;;16.60;69.31;93512.53;5079537;28;20050;-57
2021/07/13 02:29:33;;;;;;;18.23;16.42;;;;;;;16.56;68.93;93510.22;5079798;28;20043;-57
2021/07/13 02:32:04;;;;;;;19.48;17.77;;;;;;;16.51;69.31;93510.47;5078734;28;20138;-57
2021/07/13 02:34:31;;;;;;;19.17;17.50;;;;;;;16.39;69.60;93492.84;5078864;28;20039;-57
2021/07/13 02:37:01;;;;;;;20.90;18.90;;;;;;;16.51;69.36;93508.44;5080233;28;20012;-57
2021/07/13 02:39:29;;;;;;;20.67;18.77;;;;;;;16.56;68.71;93509.47;5079184;28;20494;-56
2021/07/13 02:41:55;;;;;;;20.92;18.80;;;;;;;16.58;68.84;93501.25;5089521;28;20571;-56
2021/07/13 02:44:22;;;;;;;19.95;18.13;;;;;;;16.58;69.10;93506.81;5088274;28;20024;-58
2021/07/13 02:46:48;;;;;;;19.35;17.38;;;;;;;16.47;69.01;93496.97;5086936;28;20020;-58
2021/07/13 02:49:19;;;;;;;18.23;16.60;;;;;;;16.51;68.31;93500.06;5068930;28;20581;-57
2021/07/13 02:51:47;;;;;;;18.38;16.75;;;;;;;16.44;68.87;93492.56;5069744;28;20111;-57
2021/07/13 02:54:13;;;;;;;16.52;15.15;;;;;;;16.50;67.82;93497.88;5085663;28;20024;-57
2021/07/13 02:56:40;;;;;;;17.77;16.20;;;;;;;16.32;69.18;93497.25;5069037;28;20043;-57
2021/07/13 02:59:06;;;;;;;16.27;14.88;;;;;;;16.37;68.28;93504.56;5085974;28;20029;-57
2021/07/13 03:01:33;;;;;;;16.17;14.65;;;;;;;16.31;68.39;93495.78;5069991;28;20498;-57
2021/07/13 03:03:59;;;;;;;17.95;16.33;;;;;;;16.29;69.05;93501.19;5069960;28;20493;-57
2021/07/13 03:06:24;;;;;;;16.00;14.60;;;;;;;16.30;68.55;93502.69;5085900;28;20067;-57
2021/07/13 03:08:50;;;;;;;17.10;15.60;;;;;;;16.22;68.57;93499.28;5070240;28;20535;-57
2021/07/13 03:11:16;;;;;;;15.02;13.73;;;;;;;16.29;68.14;93514.38;5068240;28;20123;-56
2021/07/13 03:13:42;;;;;;;15.68;14.48;;;;;;;16.19;68.52;93510.88;5066833;28;20490;-58
2021/07/13 03:16:10;;;;;;;16.70;15.25;;;;;;;16.15;68.58;93514.09;5068748;28;20023;-58
2021/07/13 03:18:35;;;;;;;17.08;15.68;;;;;;;16.17;68.94;93505.88;5068681;28;20017;-58
2021/07/13 03:21:03;;;;;;;16.52;15.18;;;;;;;16.20;69.21;93512.34;5083326;28;20093;-58
2021/07/13 03:23:29;;;;;;;17.13;15.68;;;;;;;16.21;69.54;93513.78;5089866;28;20027;-56
2021/07/13 03:25:55;;;;;;;16.70;15.40;;;;;;;16.21;69.59;93511.00;5090099;28;20024;-57
2021/07/13 03:28:22;;;;;;;17.13;15.50;;;;;;;16.14;69.70;93512.63;5089568;28;20495;-52
2021/07/13 03:30:48;;;;;;;18.23;16.35;;;;;;;16.15;69.28;93511.31;5105502;28;20032;-53
2021/07/13 03:33:14;;;;;;;16.70;15.07;;;;;;;16.08;69.11;93503.06;5094025;28;20020;-59
2021/07/13 03:35:40;;;;;;;16.35;15.07;;;;;;;16.07;69.29;93493.97;5085542;28;20024;-59
2021/07/13 03:38:05;;;;;;;14.80;13.55;;;;;;;16.29;68.58;93514.38;5087142;28;20520;-57
2021/07/13 03:40:31;;;;;;;15.35;13.85;;;;;;;16.29;68.24;93517.19;5085637;28;20023;-58
2021/07/13 03:42:57;;;;;;;134.00;124.40;;;;;;;16.30;67.90;93521.44;5084926;28;20024;-58
2021/07/13 03:45:25;;;;;;;73.18;68.43;;;;;;;16.28;67.28;93522.03;5073091;28;20512;-56
2021/07/13 03:47:55;;;;;;;14.52;13.23;;;;;;;16.30;67.17;93515.88;5088487;28;20054;-56
2021/07/13 03:50:22;;;;;;;16.30;13.90;;;;;;;16.21;67.19;93520.13;5089103;28;20243;-55
2021/07/13 03:52:48;;;;;;;15.57;14.23;;;;;;;16.25;67.14;93520.41;5089778;28;20032;-56
2021/07/13 03:55:14;;;;;;;18.20;14.40;;;;;;;16.18;67.94;93521.28;5079697;28;20027;-52
2021/07/13 03:57:40;;;;;;;18.60;14.80;;;;;;;16.25;67.66;93531.56;5078126;28;20503;-57
2021/07/13 04:00:12;;;;;;;17.83;16.15;;;;;;;16.28;67.82;93524.81;5079115;28;20036;-57
2021/07/13 04:02:37;;;;;;;17.38;15.90;;;;;;;16.21;68.96;93520.13;5077275;28;20029;-57
2021/07/13 04:05:04;;;;;;;19.05;16.35;;;;;;;16.28;69.10;93518.50;5077545;28;20027;-57
2021/07/13 04:07:30;;;;;;;17.27;15.65;;;;;;;16.30;68.96;93521.44;5079687;28;20027;-57
2021/07/13 04:09:55;;;;;;;18.50;16.65;;;;;;;16.24;69.42;93523.78;5078202;28;20032;-56
2021/07/13 04:12:22;;;;;;;26.45;17.40;;;;;;;16.31;69.47;93520.84;5078510;28;20082;-57
2021/07/13 04:14:47;;;;;;;17.50;15.93;;;;;;;16.40;70.02;93519.38;5079611;28;20032;-57
2021/07/13 04:17:12;;;;;;;16.17;14.77;;;;;;;16.36;70.14;93528.19;5077702;28;20482;-52
2021/07/13 04:19:38;;;;;;;17.50;16.00;;;;;;;16.44;69.95;93514.09;5079900;28;20020;-53
2021/07/13 04:22:03;;;;;;;16.75;15.15;;;;;;;16.55;69.33;93514.28;5077586;28;20019;-59
2021/07/13 04:24:29;;;;;;;17.55;15.80;;;;;;;16.56;70.19;93515.03;5079479;28;20461;-59
2021/07/13 04:26:54;;;;;;;19.58;17.60;;;;;;;16.50;70.89;93497.88;5078231;28;20027;-59
2021/07/13 04:29:20;;;;;;;21.35;19.63;;;;;;;16.58;71.23;93512.41;5078196;28;20095;-58
2021/07/13 04:31:45;;;;;;;25.05;22.85;;;;;;;16.66;71.93;93507.41;5079813;28;20028;-58
2021/07/13 04:34:11;;;;;;;26.45;24.05;;;;;;;16.67;71.57;93511.66;5077425;28;20821;-58
2021/07/13 04:36:37;;;;;;;33.22;30.25;;;;;;;16.77;72.23;93503.28;5077706;28;20024;-54
2021/07/13 04:39:04;;;;;;;31.95;28.88;;;;;;;16.82;72.12;93508.56;5078768;28;20016;-58
2021/07/13 04:41:30;;;;;;;30.95;28.35;;;;;;;16.90;72.28;93509.16;5082499;28;20404;-58
2021/07/13 04:43:56;;;;;;;32.83;30.02;;;;;;;17.01;72.20;93516.19;5081611;28;20024;-58
2021/07/13 04:46:21;;;;;;;34.20;30.83;;;;;;;16.91;73.36;93516.19;5078626;28;20027;-58
2021/07/13 04:48:47;;;;;;;32.10;29.50;;;;;;;17.00;73.19;93511.94;5082201;28;20648;-58
2021/07/13 04:51:12;;;;;;;30.40;28.10;;;;;;;17.01;73.66;93507.81;5080346;28;20021;-58
2021/07/13 04:53:38;;;;;;;25.95;23.85;;;;;;;17.13;73.73;93509.41;5081186;28;20031;-58
2021/07/13 04:56:03;;;;;;;26.17;24.13;;;;;;;17.12;73.74;93512.78;5081763;28;20031;-57
2021/07/13 04:58:29;;;;;;;26.75;24.52;;;;;;;17.17;73.96;93511.75;5080105;28;20135;-57
2021/07/13 05:00:54;;;;;;;26.15;23.70;;;;;;;17.33;73.83;93505.25;5081539;28;20027;-57
2021/07/13 05:03:20;;;;;;;25.27;23.25;;;;;;;17.37;73.99;93504.78;5081221;28;20017;-56
2021/07/13 05:05:45;;;;;;;25.85;23.70;;;;;;;17.55;73.76;93514.47;5080156;28;20027;-57
2021/07/13 05:08:11;;;;;;;25.45;22.90;;;;;;;17.66;73.59;93513.09;5081547;28;20616;-57
2021/07/13 05:10:36;;;;;;;25.48;22.95;;;;;;;17.70;73.45;93507.78;5080905;28;20048;-56
2021/07/13 05:13:02;;;;;;;24.05;22.10;;;;;;;17.84;73.36;93511.56;5081211;28;20047;-55
2021/07/13 05:15:27;;;;;;;23.92;22.08;;;;;;;17.91;73.43;93510.66;5079639;28;20101;-56
2021/07/13 05:17:53;;;;;;;23.75;21.60;;;;;;;17.99;73.67;93502.81;5081652;28;20098;-54
2021/07/13 05:20:18;;;;;;;23.33;21.10;;;;;;;18.03;73.33;93501.00;5080755;28;20020;-53
2021/07/13 05:22:44;;;;;;;22.25;20.23;;;;;;;18.13;73.28;93510.06;5079869;28;20027;-55
2021/07/13 05:25:11;;;;;;;22.08;19.95;;;;;;;18.18;72.13;93499.88;5081621;28;20054;-55
2021/07/13 05:27:41;;;;;;;20.48;18.65;;;;;;;18.32;73.06;93500.09;5086415;28;20067;-55
2021/07/13 05:30:09;;;;;;;21.92;20.13;;;;;;;18.37;72.73;93507.41;5092158;28;20039;-55
2021/07/13 05:32:35;;;;;;;20.27;18.55;;;;;;;18.46;73.19;93501.78;5092114;28;20416;-53
2021/07/13 05:35:00;;;;;;;36.55;21.67;;;;;;;18.49;73.58;93495.00;5091794;28;20028;-53
2021/07/13 05:37:26;;;;;;;36.65;21.10;;;;;;;18.56;73.28;93496.16;5091553;28;20020;-54
2021/07/13 05:39:51;;;;;;;20.98;19.02;;;;;;;18.68;73.27;93499.72;5070583;28;20465;-58
2021/07/13 05:42:17;;;;;;;20.10;18.30;;;;;;;18.70;72.50;93497.78;5083648;28;20020;-54
2021/07/13 05:44:42;;;;;;;20.35;18.40;;;;;;;18.78;72.08;93486.38;5090889;28;20404;-56
2021/07/13 05:47:08;;;;;;;21.20;19.42;;;;;;;18.88;72.18;93495.44;5090106;28;20039;-58
2021/07/13 05:49:33;;;;;;;19.73;17.83;;;;;;;18.96;71.82;93490.34;5089430;28;20158;-58
2021/07/13 05:51:58;;;;;;;27.63;24.38;;;;;;;19.08;72.17;93493.19;5088634;28;20023;-57
2021/07/13 05:54:24;;;;;;;23.60;18.23;;;;;;;19.23;71.44;93496.25;5080392;28;20031;-57
2021/07/13 05:56:49;;;;;;;20.52;17.05;;;;;;;19.20;71.23;93477.88;5087679;28;20562;-57
2021/07/13 05:59:15;;;;;;;21.23;18.33;;;;;;;19.31;70.92;93479.97;5086630;28;20476;-57
2021/07/13 06:01:40;;;;;;;17.90;16.50;;;;;;;19.48;71.08;93487.31;5086956;28;20036;-57
2021/07/13 06:04:06;;;;;;;20.00;18.02;;;;;;;19.60;70.12;93485.25;5088946;28;20065;-49
2021/07/13 06:06:31;;;;;;;18.63;17.15;;;;;;;19.79;69.25;93485.06;5089466;28;20139;-52
2021/07/13 06:08:57;;;;;;;20.05;18.17;;;;;;;19.83;68.95;93493.69;5088979;28;20066;-53
2021/07/13 06:11:22;;;;;;;23.05;20.85;;;;;;;19.96;69.24;93492.34;5089242;28;20051;-54
2021/07/13 06:13:48;;;;;;;21.38;19.38;;;;;;;19.96;70.12;93490.28;5088598;28;20031;-51
2021/07/13 06:16:13;;;;;;;22.98;21.00;;;;;;;20.05;68.82;93491.50;5089368;28;20024;-48
2021/07/13 06:18:39;;;;;;;23.92;21.65;;;;;;;20.13;68.30;93491.97;5088710;28;20108;-52
2021/07/13 06:21:05;;;;;;;24.42;22.25;;;;;;;20.24;68.45;93483.59;5086447;28;20115;-53
2021/07/13 06:23:31;;;;;;;24.45;21.83;;;;;;;20.34;67.67;93483.44;5089098;28;20028;-53
2021/07/13 06:25:56;;;;;;;21.83;19.70;;;;;;;20.49;66.97;93488.53;5087979;28;20024;-52
2021/07/13 06:28:22;;;;;;;22.35;20.05;;;;;;;20.54;66.99;93490.22;5088541;28;20027;-51
2021/07/13 06:30:47;;;;;;;21.70;19.90;;;;;;;20.59;66.71;93489.13;5087919;28;20032;-55
2021/07/13 06:33:13;;;;;;;20.13;18.38;;;;;;;20.80;63.86;93483.31;5073345;28;20040;-55
2021/07/13 06:35:39;;;;;;;20.65;19.02;;;;;;;20.92;65.40;93483.28;5067980;28;20115;-56
2021/07/13 06:38:05;;;;;;;20.92;19.13;;;;;;;21.01;64.26;93494.31;5068337;28;20031;-56
2021/07/13 06:40:31;;;;;;;22.65;20.75;;;;;;;21.08;66.16;93481.38;5081714;28;20035;-54
2021/07/13 06:42:57;;;;;;;21.42;19.73;;;;;;;21.14;65.23;93490.13;5088311;28;20024;-57
2021/07/13 06:45:22;;;;;;;21.95;20.23;;;;;;;21.21;65.71;93488.41;5084088;28;20040;-55
2021/07/13 06:47:53;;;;;;;21.02;19.13;;;;;;;21.29;64.31;93483.25;5069081;28;20044;-53
2021/07/13 06:50:18;;;;;;;19.15;17.65;;;;;;;21.30;63.84;93471.38;5077306;28;20024;-52
2021/07/13 06:52:44;;;;;;;19.58;17.98;;;;;;;21.45;64.30;93475.69;5078270;28;20579;-53
2021/07/13 06:55:10;;;;;;;20.60;18.80;;;;;;;21.46;66.04;93466.63;5076222;28;20030;-50
2021/07/13 06:57:36;;;;;;;21.42;19.67;;;;;;;21.62;63.91;93478.75;5077462;28;20020;-54
2021/07/13 07:00:03;;;;;;;18.13;16.63;;;;;;;21.77;64.58;93483.78;5078243;28;20075;-54
2021/07/13 07:02:28;;;;;;;22.95;19.52;;;;;;;22.00;62.82;93476.53;5078107;28;20028;-54
2021/07/13 07:04:54;;;;;;;18.17;16.50;;;;;;;22.09;63.48;93473.50;5075956;28;20020;-49
2021/07/13 07:07:19;;;;;;;18.30;16.80;;;;;;;22.17;64.77;93470.41;5076308;28;20024;-56
2021/07/13 07:09:45;;;;;;;19.98;18.00;;;;;;;22.20;61.75;93469.88;5077381;28;20043;-52
2021/07/13 07:12:10;;;;;;;18.63;16.88;;;;;;;22.38;61.52;93481.31;5075631;28;20025;-50
2021/07/13 07:14:36;;;;;;;19.17;17.35;;;;;;;22.49;63.50;93472.78;5076431;28;20071;-59
2021/07/13 07:17:02;;;;;;;19.63;17.65;;;;;;;22.60;62.82;93469.16;5076128;28;20035;-56
2021/07/13 07:19:27;;;;;;;18.77;17.02;;;;;;;22.72;63.18;93468.28;5080935;28;20093;-56
2021/07/13 07:21:52;;;;;;;18.65;16.75;;;;;;;22.85;63.03;93459.09;5077937;28;20028;-57
2021/07/13 07:24:18;;;;;;;17.90;15.82;;;;;;;23.04;61.24;93461.41;5082546;28;20020;-52
2021/07/13 07:26:43;;;;;;;14.77;13.50;;;;;;;23.26;59.63;93462.47;5079572;28;20467;-57
2021/07/13 07:29:09;;;;;;;69.95;64.35;;;;;;;23.38;60.55;93465.88;5083049;28;20020;-57
2021/07/13 07:31:34;;;;;;;17.42;15.20;;;;;;;23.56;60.95;93461.09;5088317;28;20158;-53
2021/07/13 07:34:00;;;;;;;13.60;12.50;;;;;;;23.91;58.76;93464.09;5088707;28;20101;-55
2021/07/13 07:36:27;;;;;;;11.18;10.07;;;;;;;24.26;56.97;93460.00;5090093;28;20105;-56
2021/07/13 07:38:53;;;;;;;9.90;9.02;;;;;;;24.60;53.12;93456.56;5089188;28;20484;-57
2021/07/13 07:41:19;;;;;;;10.90;9.93;;;;;;;25.00;56.56;93448.34;5068853;28;20024;-57
2021/07/13 07:43:46;;;;;;;13.02;11.93;;;;;;;25.26;52.10;93444.47;5067791;28;20074;-57
2021/07/13 07:46:11;;;;;;;10.60;9.60;;;;;;;25.63;52.12;93449.47;5078864;28;20031;-56
2021/07/13 07:48:37;;;;;;;8.85;7.95;;;;;;;26.08;49.44;93441.28;5103586;28;20029;-57
2021/07/13 07:51:02;;;;;;;8.57;7.63;;;;;;;26.58;47.19;93448.00;5088360;28;20673;-58
2021/07/13 07:53:28;;;;;;;9.75;7.57;;;;;;;26.66;46.14;93436.94;5088687;28;20586;-57
2021/07/13 07:55:54;;;;;;;8.60;7.05;;;;;;;26.87;42.31;93436.28;5088555;28;20501;-57
2021/07/13 07:58:20;;;;;;;8.05;7.25;;;;;;;26.93;42.66;93441.44;5088878;28;20572;-54
2021/07/13 08:00:46;;;;;;;9.65;8.48;;;;;;;27.24;41.83;93443.16;5089733;28;20032;-57
2021/07/13 08:03:12;;;;;;;10.77;7.53;;;;;;;27.63;41.48;93438.06;5089361;28;20035;-58
2021/07/13 08:05:38;;;;;;;8.07;7.30;;;;;;;28.25;41.28;93442.00;5088866;28;20020;-59
2021/07/13 08:08:03;;;;;;;11.15;6.50;;;;;;;28.50;38.99;93437.75;5089013;28;20065;-58
2021/07/13 08:10:29;;;;;;;10.45;7.20;;;;;;;28.38;40.68;93440.97;5089138;28;20556;-58
2021/07/13 08:12:54;;;;;;;7.40;6.70;;;;;;;29.14;41.08;93435.88;5089594;28;20046;-58
2021/07/13 08:15:20;;;;;;;6.93;6.30;;;;;;;29.32;38.96;93421.41;5091231;28;20511;-58
2021/07/13 08:17:46;;;;;;;6.45;5.95;;;;;;;29.79;35.58;93438.16;5093476;28;20111;-58
2021/07/13 08:20:13;;;;;;;6.45;5.95;;;;;;;30.25;36.56;93432.75;5086899;28;20477;-59
2021/07/13 08:22:43;;;;;;;9.75;6.72;;;;;;;30.09;36.89;93438.09;5072929;28;20028;-58
2021/07/13 08:25:09;;;;;;;7.05;6.40;;;;;;;30.91;35.26;93431.22;5083676;28;20085;-58
2021/07/13 08:27:35;;;;;;;8.55;6.20;;;;;;;31.40;33.69;93433.50;5093061;28;20111;-57
2021/07/13 08:30:00;;;;;;;6.85;6.25;;;;;;;32.02;33.62;93436.59;5093095;28;20024;-57
2021/07/13 08:32:26;;;;;;;7.38;6.68;;;;;;;32.59;33.12;93437.34;5093099;28;20030;-58
2021/07/13 08:34:51;;;;;;;6.55;6.00;;;;;;;33.10;29.77;93436.47;5092912;28;20024;-57
2021/07/13 08:37:20;;;;;;;6.90;6.20;;;;;;;33.07;27.36;93434.31;5089568;28;20061;-59
2021/07/13 08:39:46;;;;;;;13.00;12.10;;;;;;;33.52;26.13;93428.31;5075185;28;20024;-59
2021/07/13 08:42:11;;;;;;;6.32;5.82;;;;;;;34.19;25.82;93426.59;5090160;28;20073;-58
2021/07/13 08:44:37;;;;;;;7.10;5.78;;;;;;;34.86;26.25;93429.75;5090781;28;20089;-59
2021/07/13 08:47:03;;;;;;;8.57;6.10;;;;;;;35.49;24.34;93419.88;5090114;28;20020;-58
2021/07/13 08:49:29;;;;;;;6.60;5.90;;;;;;;35.96;26.44;93420.56;5084166;28;20020;-58
2021/07/13 08:51:54;;;;;;;7.53;6.07;;;;;;;36.22;24.45;93419.78;5090372;28;20461;-58
2021/07/13 08:54:20;;;;;;;5.68;5.18;;;;;;;36.45;24.98;93421.19;5090348;28;20081;-59
2021/07/13 08:56:45;;;;;;;6.45;5.80;;;;;;;36.99;23.70;93426.00;5089945;28;20024;-59
2021/07/13 08:59:12;;;;;;;6.97;5.38;;;;;;;36.58;23.81;93421.84;5090032;28;20077;-59
2021/07/13 09:01:38;;;;;;;9.13;6.10;;;;;;;37.04;24.43;93427.38;5090183;28;20034;-58
2021/07/13 09:04:05;;;;;;;8.18;5.50;;;;;;;37.35;22.73;93416.41;5090091;28;20408;-59
2021/07/13 09:06:49;;;;;;;9.57;5.13;;;;;;;37.33;21.48;93427.91;5090647;28;20450;-59
2021/07/13 09:09:44;;;;;;;6.47;5.72;;;;;;;37.41;21.92;93425.72;5080333;28;20034;-59
2021/07/13 09:12:16;;;;;;;6.05;5.55;;;;;;;37.38;22.89;93421.44;5078628;28;20048;-59
2021/07/13 09:14:45;;;;;;;9.50;6.10;;;;;;;36.57;22.55;93421.13;5078528;28;20478;-58
2021/07/13 09:17:10;;;;;;;7.20;5.30;;;;;;;36.27;24.29;93416.19;5077106;28;20043;-59
2021/07/13 09:19:36;;;;;;;6.25;5.25;;;;;;;36.03;23.18;93416.25;5079188;28;20020;-59
2021/07/13 09:22:02;;;;;;;5.82;5.32;;;;;;;36.04;24.37;93416.97;5093411;28;20040;-58
2021/07/13 09:24:27;;;;;;;6.18;5.68;;;;;;;35.84;24.02;93409.06;5080201;28;20048;-58
2021/07/13 09:26:54;;;;;;;6.07;5.57;;;;;;;35.27;23.96;93419.81;5076473;28;20036;-58
2021/07/13 09:29:40;;;;;;;13.15;6.75;;;;;;;34.95;26.34;93419.75;5078603;28;20481;-58
2021/07/13 09:32:28;;;;;;;7.10;6.50;;;;;;;34.59;25.99;93417.47;5078780;28;20107;-58
2021/07/13 09:35:01;;;;;;;6.68;6.07;;;;;;;34.62;29.09;93423.94;5079450;28;20112;-58
2021/07/13 09:37:38;;;;;;;6.35;5.57;;;;;;;34.75;26.24;93414.66;5078900;28;20059;-58
2021/07/13 09:40:04;;;;;;;8.55;6.88;;;;;;;34.57;25.70;93417.47;5077116;28;20089;-58
2021/07/13 09:42:31;;;;;;;6.85;6.28;;;;;;;34.89;26.75;93423.31;5079195;28;20471;-59
2021/07/13 09:45:15;;;;;;;7.65;6.95;;;;;;;35.02;27.09;93426.97;5076460;28;20016;-58
2021/07/13 09:47:41;;;;;;;7.28;6.28;;;;;;;35.28;28.25;93420.53;5077994;28;20036;-58
2021/07/13 09:50:08;;;;;;;7.03;6.43;;;;;;;35.35;25.90;93421.97;5077830;28;20103;-58
2021/07/13 09:52:33;;;;;;;9.30;6.45;;;;;;;35.49;24.97;93422.72;5095627;28;20016;-59
2021/07/13 09:55:00;;;;;;;6.55;6.00;;;;;;;35.68;24.84;93421.28;5073063;28;20027;-58
2021/07/13 09:57:29;;;;;;;9.07;6.05;;;;;;;35.68;24.87;93420.56;5078684;28;20520;-57
2021/07/13 09:59:58;;;;;;;7.00;6.30;;;;;;;35.78;24.92;93424.13;5077123;28;20028;-58
2021/07/13 10:02:26;;;;;;;10.63;6.43;;;;;;;36.04;25.34;93414.78;5077839;28;20514;-59
2021/07/13 10:04:52;;;;;;;6.65;6.05;;;;;;;36.33;23.81;93415.44;5078976;28;20024;-59
2021/07/13 10:07:20;;;;;;;7.18;6.47;;;;;;;36.64;25.90;93413.91;5077125;28;20037;-58
2021/07/13 10:09:47;;;;;;;6.70;6.10;;;;;;;36.75;24.32;93408.81;5077285;28;20466;-58
2021/07/13 10:12:17;;;;;;;7.43;6.33;;;;;;;36.67;24.00;93394.47;5078627;28;20478;-58
2021/07/13 10:14:45;;;;;;;6.28;5.68;;;;;;;35.82;22.84;93402.59;5077915;28;20111;-55
2021/07/13 10:17:11;;;;;;;6.82;6.00;;;;;;;35.80;23.71;93414.81;5077825;28;20093;-56
2021/07/13 10:19:58;;;;;;;6.60;6.03;;;;;;;35.92;24.51;93403.28;5079118;28;20493;-57
2021/07/13 10:22:26;;;;;;;6.53;5.78;;;;;;;36.07;23.90;93401.84;5093490;28;20032;-55
2021/07/13 10:24:54;;;;;;;;;;;;;;;36.46;23.72;93399.59;5080212;28;20754;-57
2021/07/13 10:27:36;;;;;;;6.20;5.60;;;;;;;36.86;22.58;93398.69;5078007;28;19935;-57
2021/07/13 10:30:06;;;;;;;6.35;5.80;;;;;;;36.96;21.45;93401.53;5077775;28;20530;-57
2021/07/13 10:32:33;;;;;;;7.53;6.63;;;;;;;37.00;23.30;93402.22;5079083;28;20103;-52
2021/07/13 10:35:30;;;;;;;6.75;6.15;;;;;;;36.95;21.93;93395.06;5081949;28;20039;-57
2021/07/13 10:38:01;;;;;;;7.80;7.15;;;;;;;37.24;22.34;93399.19;5090754;28;20034;-58
2021/07/13 10:40:27;;;;;;;11.93;8.57;;;;;;;37.62;21.68;93391.72;5105946;28;20028;-58
2021/07/13 10:42:54;;;;;;;8.48;7.65;;;;;;;37.34;22.53;93391.94;5091267;28;20036;-58
2021/07/13 10:45:39;;;;;;;7.55;5.55;;;;;;;37.52;21.78;93394.69;5086341;28;20020;-58
2021/07/13 10:48:12;;;;;;;7.85;7.13;;;;;;;37.52;21.82;93394.69;5069443;28;20039;-58
2021/07/13 10:50:52;;;;;;;7.43;6.53;;;;;;;37.03;21.12;93394.28;5070714;28;20043;-58
2021/07/13 10:53:31;;;;;;;6.35;5.80;;;;;;;36.53;23.14;93394.53;5069639;28;20036;-58
2021/07/13 10:56:14;;;;;;;7.22;6.53;;;;;;;36.89;23.96;93383.56;5070555;28;20090;-58
2021/07/13 10:58:40;;;;;;;8.73;6.88;;;;;;;37.12;23.14;93387.75;5070244;28;20524;-58
2021/07/13 11:01:10;;;;;;;8.95;7.22;;;;;;;36.83;22.54;93380.72;5070387;28;20033;-57
2021/07/13 11:03:35;;;;;;;8.25;7.45;;;;;;;36.73;23.42;93380.78;5070264;28;20508;-58
2021/07/13 11:06:07;;;;;;;7.65;6.95;;;;;;;35.94;23.55;93385.31;5069511;28;20025;-58
2021/07/13 11:08:42;;;;;;;7.05;6.38;;;;;;;35.13;23.50;93382.47;5068040;28;20024;-57
2021/07/13 11:11:08;;;;;;;7.70;7.00;;;;;;;34.92;23.98;93381.72;5068031;28;20127;-57
2021/07/13 11:13:34;;;;;;;7.55;6.88;;;;;;;35.27;25.34;93379.63;5067786;28;20033;-58
2021/07/13 11:16:00;;;;;;;8.52;7.72;;;;;;;35.72;24.70;93374.59;5068004;28;20028;-58
2021/07/13 11:18:29;;;;;;;11.73;10.55;;;;;;;35.43;25.31;93373.16;5064815;28;20051;-58
2021/07/13 11:20:55;;;;;;;10.35;9.38;;;;;;;34.93;25.16;93376.69;5080597;28;20066;-57
2021/07/13 11:23:27;;;;;;;19.45;8.45;;;;;;;34.96;26.51;93375.25;5088060;28;20032;-58